sensor_id;sensor_type;location;lat;lon;timestamp;pressure;altitude;pressure_sealevel;temperature;humidity
49194;BME280;35029;50.804;12.866;2023-04-21T00:02:01;97725.72;;;5.04;100.00
49194;BME280;35029;50.804;12.866;2023-04-21T00:04:26;97717.47;;;4.99;100.00
49194;BME280;35029;50.804;12.866;2023-04-21T00:06:53;97710.41;;;4.91;100.00
49194;BME280;35029;50.804;12.866;2023-04-21T00:09:19;97727.34;;;4.97;100.00
49194;BME280;35029;50.804;12.866;2023-04-21T00:11:45;97713.88;;;4.91;100.00
49194;BME280;35029;50.804;12.866;2023-04-21T00:14:10;97715.19;;;4.96;100.00
49194;BME280;35029;50.804;12.866;2023-04-21T00:16:36;97710.41;;;4.91;100.00
49194;BME280;35029;50.804;12.866;2023-04-21T00:19:01;97707.44;;;4.86;100.00
49194;BME280;35029;50.804;12.866;2023-04-21T00:21:32;97714.00;;;4.82;100.00
49194;BME280;35029;50.804;12.866;2023-04-21T00:23:57;97694.28;;;4.69;100.00
49194;BME280;35029;50.804;12.866;2023-04-21T00:26:23;97704.97;;;4.76;100.00
49194;BME280;35029;50.804;12.866;2023-04-21T00:28:49;97703.47;;;4.73;100.00
49194;BME280;35029;50.804;12.866;2023-04-21T00:31:15;97710.66;;;4.71;100.00
49194;BME280;35029;50.804;12.866;2023-04-21T00:33:40;97709.50;;;4.66;100.00
49194;BME280;35029;50.804;12.866;2023-04-21T00:36:06;97691.88;;;4.50;100.00
49194;BME280;35029;50.804;12.866;2023-04-21T00:38:32;97713.06;;;4.56;100.00
49194;BME280;35029;50.804;12.866;2023-04-21T00:40:57;97702.72;;;4.55;100.00
49194;BME280;35029;50.804;12.866;2023-04-21T00:43:23;97696.16;;;4.51;100.00
49194;BME280;35029;50.804;12.866;2023-04-21T00:45:53;97693.22;;;4.54;100.00
49194;BME280;35029;50.804;12.866;2023-04-21T00:48:19;97684.16;;;4.48;100.00
49194;BME280;35029;50.804;12.866;2023-04-21T00:50:44;97671.84;;;4.40;100.00
49194;BME280;35029;50.804;12.866;2023-04-21T00:53:11;97685.81;;;4.49;100.00
49194;BME280;35029;50.804;12.866;2023-04-21T00:55:38;97688.75;;;4.46;100.00
49194;BME280;35029;50.804;12.866;2023-04-21T00:58:04;97693.34;;;4.44;100.00
49194;BME280;35029;50.804;12.866;2023-04-21T01:00:30;97658.34;;;4.27;100.00
49194;BME280;35029;50.804;12.866;2023-04-21T01:02:56;97655.72;;;4.27;100.00
49194;BME280;35029;50.804;12.866;2023-04-21T01:05:22;97658.19;;;4.29;100.00
49194;BME280;35029;50.804;12.866;2023-04-21T01:07:48;97685.47;;;4.44;100.00
49194;BME280;35029;50.804;12.866;2023-04-21T01:10:14;97666.72;;;4.39;100.00
49194;BME280;35029;50.804;12.866;2023-04-21T01:12:43;97681.06;;;4.45;100.00
49194;BME280;35029;50.804;12.866;2023-04-21T01:15:11;97676.41;;;4.38;100.00
49194;BME280;35029;50.804;12.866;2023-04-21T01:17:37;97675.28;;;4.41;100.00
49194;BME280;35029;50.804;12.866;2023-04-21T01:20:13;97671.84;;;4.40;100.00
49194;BME280;35029;50.804;12.866;2023-04-21T01:22:40;97672.97;;;4.38;100.00
49194;BME280;35029;50.804;12.866;2023-04-21T01:25:07;97677.22;;;4.39;100.00
49194;BME280;35029;50.804;12.866;2023-04-21T01:27:35;97678.03;;;4.31;100.00
49194;BME280;35029;50.804;12.866;2023-04-21T01:30:02;97686.91;;;4.38;100.00
49194;BME280;35029;50.804;12.866;2023-04-21T01:32:29;97680.19;;;4.36;100.00
49194;BME280;35029;50.804;12.866;2023-04-21T01:34:56;97676.34;;;4.22;100.00
49194;BME280;35029;50.804;12.866;2023-04-21T01:37:25;97685.22;;;4.29;100.00
49194;BME280;35029;50.804;12.866;2023-04-21T01:39:53;97683.94;;;4.33;100.00
49194;BME280;35029;50.804;12.866;2023-04-21T01:42:21;97670.97;;;4.32;100.00
49194;BME280;35029;50.804;12.866;2023-04-21T01:44:47;97677.56;;;4.36;100.00
49194;BME280;35029;50.804;12.866;2023-04-21T01:47:16;97680.66;;;4.31;100.00
49194;BME280;35029;50.804;12.866;2023-04-21T01:49:42;97673.56;;;4.23;100.00
49194;BME280;35029;50.804;12.866;2023-04-21T01:52:08;97643.28;;;4.03;100.00
49194;BME280;35029;50.804;12.866;2023-04-21T01:54:34;97671.25;;;4.20;100.00
49194;BME280;35029;50.804;12.866;2023-04-21T01:57:00;97676.81;;;4.17;100.00
49194;BME280;35029;50.804;12.866;2023-04-21T01:59:26;97657.38;;;4.02;100.00
49194;BME280;35029;50.804;12.866;2023-04-21T02:01:52;97681.03;;;4.10;100.00
49194;BME280;35029;50.804;12.866;2023-04-21T02:04:17;97673.16;;;4.10;100.00
49194;BME280;35029;50.804;12.866;2023-04-21T02:06:43;97675.44;;;4.05;100.00
49194;BME280;35029;50.804;12.866;2023-04-21T02:09:09;97676.06;;;3.99;100.00
49194;BME280;35029;50.804;12.866;2023-04-21T02:11:34;97679.66;;;3.98;100.00
49194;BME280;35029;50.804;12.866;2023-04-21T02:14:00;97674.34;;;3.89;100.00
49194;BME280;35029;50.804;12.866;2023-04-21T02:16:25;97673.72;;;3.87;100.00
49194;BME280;35029;50.804;12.866;2023-04-21T02:18:55;97670.25;;;3.87;100.00
49194;BME280;35029;50.804;12.866;2023-04-21T02:21:28;97652.97;;;3.76;100.00
49194;BME280;35029;50.804;12.866;2023-04-21T02:23:53;97659.25;;;3.83;100.00
49194;BME280;35029;50.804;12.866;2023-04-21T02:26:19;97665.84;;;3.87;100.00
49194;BME280;35029;50.804;12.866;2023-04-21T02:28:46;97665.84;;;3.87;100.00
49194;BME280;35029;50.804;12.866;2023-04-21T02:31:14;97661.41;;;3.88;100.00
49194;BME280;35029;50.804;12.866;2023-04-21T02:33:40;97662.84;;;3.82;100.00
49194;BME280;35029;50.804;12.866;2023-04-21T02:36:06;97677.63;;;3.83;100.00
49194;BME280;35029;50.804;12.866;2023-04-21T02:38:31;97660.78;;;3.68;100.00
49194;BME280;35029;50.804;12.866;2023-04-21T02:40:57;97668.00;;;3.66;100.00
49194;BME280;35029;50.804;12.866;2023-04-21T02:43:23;97654.66;;;3.59;100.00
49194;BME280;35029;50.804;12.866;2023-04-21T02:45:49;97663.34;;;3.60;100.00
49194;BME280;35029;50.804;12.866;2023-04-21T02:48:16;97683.09;;;3.72;100.00
49194;BME280;35029;50.804;12.866;2023-04-21T02:50:48;97670.25;;;3.61;100.00
49194;BME280;35029;50.804;12.866;2023-04-21T02:53:14;97676.16;;;3.63;100.00
49194;BME280;35029;50.804;12.866;2023-04-21T02:55:41;97682.75;;;3.67;100.00
49194;BME280;35029;50.804;12.866;2023-04-21T02:58:07;97679.13;;;3.68;100.00
49194;BME280;35029;50.804;12.866;2023-04-21T03:00:32;97669.78;;;3.65;100.00
49194;BME280;35029;50.804;12.866;2023-04-21T03:02:58;97680.47;;;3.72;100.00
49194;BME280;35029;50.804;12.866;2023-04-21T03:05:24;97680.84;;;3.77;100.00
49194;BME280;35029;50.804;12.866;2023-04-21T03:07:49;97685.91;;;3.79;100.00
49194;BME280;35029;50.804;12.866;2023-04-21T03:10:15;97689.81;;;3.75;100.00
49194;BME280;35029;50.804;12.866;2023-04-21T03:12:42;97679.06;;;3.78;100.00
49194;BME280;35029;50.804;12.866;2023-04-21T03:15:07;97685.91;;;3.79;100.00
49194;BME280;35029;50.804;12.866;2023-04-21T03:17:33;97676.72;;;3.75;100.00
49194;BME280;35029;50.804;12.866;2023-04-21T03:19:59;97672.09;;;3.68;100.00
49194;BME280;35029;50.804;12.866;2023-04-21T03:22:25;97657.50;;;3.66;100.00
49194;BME280;35029;50.804;12.866;2023-04-21T03:24:50;97683.63;;;3.76;100.00
49194;BME280;35029;50.804;12.866;2023-04-21T03:27:16;97676.72;;;3.75;100.00
49194;BME280;35029;50.804;12.866;2023-04-21T03:29:41;97679.88;;;3.78;100.00
49194;BME280;35029;50.804;12.866;2023-04-21T03:32:07;97685.91;;;3.79;100.00
49194;BME280;35029;50.804;12.866;2023-04-21T03:34:32;97683.66;;;3.84;100.00
49194;BME280;35029;50.804;12.866;2023-04-21T03:37:01;97675.66;;;3.85;100.00
49194;BME280;35029;50.804;12.866;2023-04-21T03:39:27;97682.00;;;3.83;100.00
49194;BME280;35029;50.804;12.866;2023-04-21T03:41:53;97686.13;;;3.85;100.00
49194;BME280;35029;50.804;12.866;2023-04-21T03:44:19;97684.47;;;3.84;100.00
49194;BME280;35029;50.804;12.866;2023-04-21T03:46:44;97673.03;;;3.85;100.00
49194;BME280;35029;50.804;12.866;2023-04-21T03:49:10;97680.28;;;3.92;100.00
49194;BME280;35029;50.804;12.866;2023-04-21T03:51:35;97627.97;;;3.64;100.00
49194;BME280;35029;50.804;12.866;2023-04-21T03:54:01;97665.53;;;3.91;100.00
49194;BME280;35029;50.804;12.866;2023-04-21T03:56:27;97668.78;;;3.93;100.00
49194;BME280;35029;50.804;12.866;2023-04-21T03:58:52;97671.94;;;3.96;100.00
49194;BME280;35029;50.804;12.866;2023-04-21T04:01:18;97655.84;;;3.91;100.00
49194;BME280;35029;50.804;12.866;2023-04-21T04:03:43;97670.81;;;3.99;100.00
49194;BME280;35029;50.804;12.866;2023-04-21T04:06:09;97655.25;;;3.97;100.00
49194;BME280;35029;50.804;12.866;2023-04-21T04:08:34;97648.81;;;3.92;100.00
49194;BME280;35029;50.804;12.866;2023-04-21T04:11:00;97674.97;;;4.10;100.00
49194;BME280;35029;50.804;12.866;2023-04-21T04:13:25;97657.91;;;4.05;100.00
49194;BME280;35029;50.804;12.866;2023-04-21T04:15:52;97677.63;;;4.18;100.00
49194;BME280;35029;50.804;12.866;2023-04-21T04:18:18;97676.22;;;4.32;100.00
49194;BME280;35029;50.804;12.866;2023-04-21T04:20:43;97679.56;;;4.42;100.00
49194;BME280;35029;50.804;12.866;2023-04-21T04:23:09;97673.69;;;4.56;100.00
49194;BME280;35029;50.804;12.866;2023-04-21T04:25:34;97679.16;;;4.71;100.00
49194;BME280;35029;50.804;12.866;2023-04-21T04:28:01;97664.75;;;4.84;100.00
49194;BME280;35029;50.804;12.866;2023-04-21T04:30:27;97684.16;;;4.99;100.00
49194;BME280;35029;50.804;12.866;2023-04-21T04:32:53;97676.78;;;5.03;100.00
49194;BME280;35029;50.804;12.866;2023-04-21T04:35:18;97651.97;;;4.97;100.00
49194;BME280;35029;50.804;12.866;2023-04-21T04:37:44;97667.47;;;5.25;100.00
49194;BME280;35029;50.804;12.866;2023-04-21T04:40:10;97674.84;;;5.38;100.00
49194;BME280;35029;50.804;12.866;2023-04-21T04:42:39;97676.50;;;5.47;100.00
49194;BME280;35029;50.804;12.866;2023-04-21T04:45:06;97675.69;;;5.55;100.00
49194;BME280;35029;50.804;12.866;2023-04-21T04:47:34;97676.66;;;5.62;100.00
49194;BME280;35029;50.804;12.866;2023-04-21T04:50:00;97682.25;;;5.59;100.00
49194;BME280;35029;50.804;12.866;2023-04-21T04:52:25;97685.34;;;5.63;100.00
49194;BME280;35029;50.804;12.866;2023-04-21T04:54:51;97681.06;;;5.70;100.00
49194;BME280;35029;50.804;12.866;2023-04-21T04:57:16;97674.53;;;5.74;100.00
49194;BME280;35029;50.804;12.866;2023-04-21T04:59:42;97677.16;;;5.74;100.00
49194;BME280;35029;50.804;12.866;2023-04-21T05:02:08;97655.94;;;5.67;100.00
49194;BME280;35029;50.804;12.866;2023-04-21T05:04:34;97680.09;;;5.79;100.00
49194;BME280;35029;50.804;12.866;2023-04-21T05:07:00;97666.31;;;5.69;100.00
49194;BME280;35029;50.804;12.866;2023-04-21T05:09:25;97675.16;;;5.76;100.00
49194;BME280;35029;50.804;12.866;2023-04-21T05:11:51;97666.47;;;5.67;100.00
49194;BME280;35029;50.804;12.866;2023-04-21T05:14:17;97679.44;;;5.85;100.00
49194;BME280;35029;50.804;12.866;2023-04-21T05:16:42;97681.38;;;5.91;100.00
49194;BME280;35029;50.804;12.866;2023-04-21T05:19:08;97686.00;;;5.98;100.00
49194;BME280;35029;50.804;12.866;2023-04-21T05:21:33;97698.03;;;6.00;100.00
49194;BME280;35029;50.804;12.866;2023-04-21T05:23:59;97695.22;;;6.02;100.00
49194;BME280;35029;50.804;12.866;2023-04-21T05:26:26;97672.16;;;5.96;100.00
49194;BME280;35029;50.804;12.866;2023-04-21T05:28:52;97690.28;;;6.07;100.00
49194;BME280;35029;50.804;12.866;2023-04-21T05:31:18;97693.56;;;6.09;100.00
49194;BME280;35029;50.804;12.866;2023-04-21T05:33:43;97691.09;;;6.07;100.00
49194;BME280;35029;50.804;12.866;2023-04-21T05:36:10;97676.44;;;5.97;100.00
49194;BME280;35029;50.804;12.866;2023-04-21T05:38:36;97674.50;;;6.07;100.00
49194;BME280;35029;50.804;12.866;2023-04-21T05:41:02;97701.56;;;6.32;100.00
49194;BME280;35029;50.804;12.866;2023-04-21T05:43:27;97699.06;;;6.39;100.00
49194;BME280;35029;50.804;12.866;2023-04-21T05:45:53;97689.34;;;6.48;100.00
49194;BME280;35029;50.804;12.866;2023-04-21T05:48:19;97688.28;;;6.57;100.00
49194;BME280;35029;50.804;12.866;2023-04-21T05:50:44;97693.50;;;6.73;100.00
49194;BME280;35029;50.804;12.866;2023-04-21T05:53:10;97698.84;;;6.88;100.00
49194;BME280;35029;50.804;12.866;2023-04-21T05:55:36;97702.72;;;7.01;100.00
49194;BME280;35029;50.804;12.866;2023-04-21T05:58:02;97700.34;;;7.14;100.00
49194;BME280;35029;50.804;12.866;2023-04-21T06:00:29;97697.16;;;7.27;100.00
49194;BME280;35029;50.804;12.866;2023-04-21T06:02:54;97686.78;;;7.25;100.00
49194;BME280;35029;50.804;12.866;2023-04-21T06:05:20;97676.00;;;7.35;100.00
49194;BME280;35029;50.804;12.866;2023-04-21T06:07:46;97681.19;;;7.67;100.00
49194;BME280;35029;50.804;12.866;2023-04-21T06:10:12;97678.78;;;7.80;100.00
49194;BME280;35029;50.804;12.866;2023-04-21T06:12:38;97657.47;;;7.82;100.00
49194;BME280;35029;50.804;12.866;2023-04-21T06:15:06;97648.13;;;7.94;100.00
49194;BME280;35029;50.804;12.866;2023-04-21T06:17:32;97680.91;;;8.29;100.00
49194;BME280;35029;50.804;12.866;2023-04-21T06:19:58;97684.84;;;8.49;100.00
49194;BME280;35029;50.804;12.866;2023-04-21T06:22:24;97679.75;;;8.62;100.00
49194;BME280;35029;50.804;12.866;2023-04-21T06:24:53;97673.16;;;8.73;100.00
49194;BME280;35029;50.804;12.866;2023-04-21T06:27:18;97667.00;;;8.87;100.00
49194;BME280;35029;50.804;12.866;2023-04-21T06:30:14;97680.72;;;9.12;100.00
49194;BME280;35029;50.804;12.866;2023-04-21T06:32:41;97686.97;;;9.26;100.00
49194;BME280;35029;50.804;12.866;2023-04-21T06:35:08;97678.91;;;9.35;100.00
49194;BME280;35029;50.804;12.866;2023-04-21T06:37:34;97680.66;;;9.49;100.00
49194;BME280;35029;50.804;12.866;2023-04-21T06:39:59;97679.34;;;9.60;100.00
49194;BME280;35029;50.804;12.866;2023-04-21T06:42:26;97679.63;;;9.72;100.00
49194;BME280;35029;50.804;12.866;2023-04-21T06:44:55;97674.00;;;9.81;100.00
49194;BME280;35029;50.804;12.866;2023-04-21T06:47:26;97672.50;;;10.01;100.00
49194;BME280;35029;50.804;12.866;2023-04-21T06:49:57;97672.22;;;10.17;98.07
49194;BME280;35029;50.804;12.866;2023-04-21T07:05:36;97659.50;;;10.76;91.97
49194;BME280;35029;50.804;12.866;2023-04-21T07:08:03;97653.78;;;10.79;91.11
49194;BME280;35029;50.804;12.866;2023-04-21T07:10:36;97624.97;;;10.62;90.26
49194;BME280;35029;50.804;12.866;2023-04-21T07:13:01;97635.47;;;10.91;88.44
49194;BME280;35029;50.804;12.866;2023-04-21T07:15:27;97661.03;;;11.12;88.76
49194;BME280;35029;50.804;12.866;2023-04-21T07:17:52;97662.69;;;11.26;88.76
49194;BME280;35029;50.804;12.866;2023-04-21T07:20:18;97649.44;;;11.33;88.12
49194;BME280;35029;50.804;12.866;2023-04-21T07:22:44;97660.66;;;11.48;87.89
49194;BME280;35029;50.804;12.866;2023-04-21T07:25:10;97656.19;;;11.56;87.25
49194;BME280;35029;50.804;12.866;2023-04-21T07:27:36;97639.66;;;11.60;85.95
49194;BME280;35029;50.804;12.866;2023-04-21T07:30:05;97661.28;;;11.77;84.26
49194;BME280;35029;50.804;12.866;2023-04-21T07:32:31;97653.31;;;11.91;83.83
49194;BME280;35029;50.804;12.866;2023-04-21T07:34:59;97653.53;;;12.03;85.29
49194;BME280;35029;50.804;12.866;2023-04-21T07:37:26;97645.34;;;12.11;84.85
49194;BME280;35029;50.804;12.866;2023-04-21T07:39:52;97650.84;;;12.16;82.84
49194;BME280;35029;50.804;12.866;2023-04-21T07:42:17;97642.47;;;12.26;81.05
49194;BME280;35029;50.804;12.866;2023-04-21T07:44:43;97641.41;;;12.33;79.98
49194;BME280;35029;50.804;12.866;2023-04-21T07:47:08;97640.38;;;12.34;80.81
49194;BME280;35029;50.804;12.866;2023-04-21T07:49:34;97637.28;;;12.44;81.85
49194;BME280;35029;50.804;12.866;2023-04-21T07:51:59;97640.94;;;12.43;82.17
49194;BME280;35029;50.804;12.866;2023-04-21T07:54:25;97637.88;;;12.53;80.14
49194;BME280;35029;50.804;12.866;2023-04-21T07:56:51;97653.50;;;12.75;78.97
49194;BME280;35029;50.804;12.866;2023-04-21T07:59:16;97639.94;;;12.90;77.43
49194;BME280;35029;50.804;12.866;2023-04-21T08:01:43;97634.81;;;12.95;75.49
49194;BME280;35029;50.804;12.866;2023-04-21T08:04:08;97611.53;;;12.83;72.83
49194;BME280;35029;50.804;12.866;2023-04-21T08:06:34;97643.69;;;13.14;72.99
49194;BME280;35029;50.804;12.866;2023-04-21T08:09:00;97653.88;;;13.24;72.43
49194;BME280;35029;50.804;12.866;2023-04-21T08:11:25;97617.03;;;13.21;75.00
49194;BME280;35029;50.804;12.866;2023-04-21T08:13:53;97626.81;;;13.33;73.08
49194;BME280;35029;50.804;12.866;2023-04-21T08:16:18;97647.13;;;13.60;74.98
49194;BME280;35029;50.804;12.866;2023-04-21T08:18:44;97640.25;;;13.71;73.05
49194;BME280;35029;50.804;12.866;2023-04-21T08:21:10;97633.31;;;13.69;73.27
49194;BME280;35029;50.804;12.866;2023-04-21T08:23:35;97644.47;;;13.78;72.68
49194;BME280;35029;50.804;12.866;2023-04-21T08:26:01;97611.41;;;13.67;74.15
49194;BME280;35029;50.804;12.866;2023-04-21T08:28:27;97652.13;;;13.93;73.64
49194;BME280;35029;50.804;12.866;2023-04-21T08:30:53;97646.09;;;14.05;70.96
49194;BME280;35029;50.804;12.866;2023-04-21T08:33:18;97638.19;;;14.16;71.98
49194;BME280;35029;50.804;12.866;2023-04-21T08:35:44;97639.91;;;14.29;73.45
49194;BME280;35029;50.804;12.866;2023-04-21T08:38:09;97641.53;;;14.30;72.10
49194;BME280;35029;50.804;12.866;2023-04-21T08:40:36;97638.59;;;14.39;70.00
49194;BME280;35029;50.804;12.866;2023-04-21T08:43:06;97617.81;;;14.41;68.21
49194;BME280;35029;50.804;12.866;2023-04-21T08:45:33;97622.13;;;14.42;68.14
49194;BME280;35029;50.804;12.866;2023-04-21T08:48:00;97632.94;;;14.65;71.00
49194;BME280;35029;50.804;12.866;2023-04-21T08:50:28;97636.22;;;14.67;66.51
49194;BME280;35029;50.804;12.866;2023-04-21T08:52:55;97628.94;;;14.75;68.79
49194;BME280;35029;50.804;12.866;2023-04-21T08:55:25;97641.66;;;14.91;69.23
49194;BME280;35029;50.804;12.866;2023-04-21T08:57:51;97628.91;;;14.93;68.82
49194;BME280;35029;50.804;12.866;2023-04-21T09:00:17;97646.97;;;15.10;67.72
49194;BME280;35029;50.804;12.866;2023-04-21T09:02:57;97597.31;;;14.90;65.90
49194;BME280;35029;50.804;12.866;2023-04-21T09:05:24;97638.13;;;15.09;61.65
49194;BME280;35029;50.804;12.866;2023-04-21T09:07:51;97638.50;;;15.13;61.55
49194;BME280;35029;50.804;12.866;2023-04-21T09:10:22;97627.03;;;15.24;64.68
49194;BME280;35029;50.804;12.866;2023-04-21T09:12:51;97650.44;;;15.41;64.29
49194;BME280;35029;50.804;12.866;2023-04-21T09:15:19;97630.91;;;15.40;64.92
49194;BME280;35029;50.804;12.866;2023-04-21T09:17:46;97643.59;;;15.45;63.43
49194;BME280;35029;50.804;12.866;2023-04-21T09:20:13;97634.88;;;15.49;66.71
49194;BME280;35029;50.804;12.866;2023-04-21T09:22:40;97630.97;;;15.64;64.27
49194;BME280;35029;50.804;12.866;2023-04-21T09:25:05;97617.38;;;15.65;60.40
49194;BME280;35029;50.804;12.866;2023-04-21T09:27:35;97622.38;;;15.74;60.93
49194;BME280;35029;50.804;12.866;2023-04-21T09:30:02;97628.69;;;15.91;61.40
49194;BME280;35029;50.804;12.866;2023-04-21T09:32:28;97621.34;;;15.86;60.46
49194;BME280;35029;50.804;12.866;2023-04-21T09:34:58;97609.09;;;15.79;58.99
49194;BME280;35029;50.804;12.866;2023-04-21T09:37:24;97632.03;;;15.86;58.60
49194;BME280;35029;50.804;12.866;2023-04-21T09:39:50;97613.34;;;15.98;61.24
49194;BME280;35029;50.804;12.866;2023-04-21T09:42:15;97621.19;;;15.69;59.61
49194;BME280;35029;50.804;12.866;2023-04-21T09:44:41;97617.47;;;15.70;59.65
49194;BME280;35029;50.804;12.866;2023-04-21T09:47:09;97607.84;;;15.81;59.81
49194;BME280;35029;50.804;12.866;2023-04-21T09:49:38;97621.34;;;16.10;58.06
49194;BME280;35029;50.804;12.866;2023-04-21T09:52:09;97620.53;;;16.21;56.54
49194;BME280;35029;50.804;12.866;2023-04-21T09:54:44;97582.84;;;15.52;57.55
49194;BME280;35029;50.804;12.866;2023-04-21T09:57:12;97627.56;;;15.45;58.13
49194;BME280;35029;50.804;12.866;2023-04-21T09:59:44;97619.47;;;15.21;60.82
49194;BME280;35029;50.804;12.866;2023-04-21T10:02:10;97615.72;;;15.10;61.62
49194;BME280;35029;50.804;12.866;2023-04-21T10:04:36;97612.09;;;15.47;60.68
49194;BME280;35029;50.804;12.866;2023-04-21T10:07:05;97622.72;;;15.65;60.33
49194;BME280;35029;50.804;12.866;2023-04-21T10:09:55;97612.25;;;15.76;60.18
49194;BME280;35029;50.804;12.866;2023-04-21T10:12:23;97608.53;;;15.77;57.07
49194;BME280;35029;50.804;12.866;2023-04-21T10:14:50;97607.84;;;16.17;58.14
49194;BME280;35029;50.804;12.866;2023-04-21T10:17:17;97609.16;;;16.02;57.56
49194;BME280;35029;50.804;12.866;2023-04-21T10:19:51;97616.09;;;16.27;58.28
49194;BME280;35029;50.804;12.866;2023-04-21T10:22:33;97574.50;;;16.08;58.56
49194;BME280;35029;50.804;12.866;2023-04-21T10:25:00;97599.38;;;15.96;58.35
49194;BME280;35029;50.804;12.866;2023-04-21T10:27:38;97612.53;;;15.86;59.12
49194;BME280;35029;50.804;12.866;2023-04-21T10:30:21;97593.34;;;16.01;58.74
49194;BME280;35029;50.804;12.866;2023-04-21T10:32:47;97604.97;;;15.83;56.72
49194;BME280;35029;50.804;12.866;2023-04-21T10:35:15;97578.81;;;15.61;57.59
49194;BME280;35029;50.804;12.866;2023-04-21T10:37:42;97594.38;;;15.88;59.38
49194;BME280;35029;50.804;12.866;2023-04-21T10:40:33;97609.44;;;15.70;55.29
49194;BME280;35029;50.804;12.866;2023-04-21T10:43:02;97600.75;;;15.63;57.90
49194;BME280;35029;50.804;12.866;2023-04-21T10:45:29;97603.19;;;16.00;56.07
49194;BME280;35029;50.804;12.866;2023-04-21T10:47:58;97612.53;;;15.86;55.55
49194;BME280;35029;50.804;12.866;2023-04-21T10:50:30;97605.28;;;15.63;56.64
49194;BME280;35029;50.804;12.866;2023-04-21T10:52:59;97598.66;;;15.65;56.82
49194;BME280;35029;50.804;12.866;2023-04-21T10:55:31;97607.56;;;15.47;56.10
49194;BME280;35029;50.804;12.866;2023-04-21T10:58:01;97594.22;;;15.35;56.43
49194;BME280;35029;50.804;12.866;2023-04-21T11:00:27;97582.94;;;15.21;57.07
49194;BME280;35029;50.804;12.866;2023-04-21T11:03:04;97605.22;;;15.27;57.94
49194;BME280;35029;50.804;12.866;2023-04-21T11:05:40;97608.00;;;15.20;58.66
49194;BME280;35029;50.804;12.866;2023-04-21T11:08:15;97589.63;;;15.12;58.50
49194;BME280;35029;50.804;12.866;2023-04-21T11:10:49;97604.06;;;15.23;57.55
49194;BME280;35029;50.804;12.866;2023-04-21T11:13:15;97593.63;;;15.21;58.46
49194;BME280;35029;50.804;12.866;2023-04-21T11:15:41;97598.03;;;15.28;57.42
49194;BME280;35029;50.804;12.866;2023-04-21T11:18:06;97589.56;;;15.66;58.59
49194;BME280;35029;50.804;12.866;2023-04-21T11:20:39;97591.81;;;15.69;59.17
49194;BME280;35029;50.804;12.866;2023-04-21T11:23:05;97590.41;;;15.67;59.99
49194;BME280;35029;50.804;12.866;2023-04-21T11:25:31;97592.19;;;15.85;58.57
49194;BME280;35029;50.804;12.866;2023-04-21T11:27:56;97593.41;;;16.42;57.91
49194;BME280;35029;50.804;12.866;2023-04-21T11:30:31;97579.59;;;17.19;57.43
49194;BME280;35029;50.804;12.866;2023-04-21T11:33:00;97579.91;;;17.06;56.41
49194;BME280;35029;50.804;12.866;2023-04-21T11:35:26;97561.31;;;17.50;56.81
49194;BME280;35029;50.804;12.866;2023-04-21T11:37:51;97563.50;;;17.02;53.21
49194;BME280;35029;50.804;12.866;2023-04-21T11:40:17;97553.72;;;16.38;53.14
49194;BME280;35029;50.804;12.866;2023-04-21T11:42:43;97574.13;;;16.16;55.22
49194;BME280;35029;50.804;12.866;2023-04-21T11:45:19;97578.44;;;16.58;54.43
49194;BME280;35029;50.804;12.866;2023-04-21T11:47:44;97567.97;;;17.14;53.08
49194;BME280;35029;50.804;12.866;2023-04-21T11:50:10;97561.00;;;17.47;51.09
49194;BME280;35029;50.804;12.866;2023-04-21T11:52:36;97575.38;;;17.40;51.42
49194;BME280;35029;50.804;12.866;2023-04-21T11:57:29;97568.03;;;17.87;47.96
49194;BME280;35029;50.804;12.866;2023-04-21T12:00:00;97560.44;;;18.18;49.35
49194;BME280;35029;50.804;12.866;2023-04-21T12:02:28;97570.09;;;18.41;47.99
49194;BME280;35029;50.804;12.866;2023-04-21T12:05:02;97558.84;;;18.44;47.51
49194;BME280;35029;50.804;12.866;2023-04-21T12:07:46;97550.63;;;18.78;48.71
49194;BME280;35029;50.804;12.866;2023-04-21T12:10:20;97556.69;;;18.19;46.71
49194;BME280;35029;50.804;12.866;2023-04-21T12:12:46;97562.69;;;17.70;45.99
49194;BME280;35029;50.804;12.866;2023-04-21T12:15:19;97559.47;;;17.51;45.87
49194;BME280;35029;50.804;12.866;2023-04-21T12:17:53;97546.13;;;18.34;47.57
49194;BME280;35029;50.804;12.866;2023-04-21T12:20:20;97556.31;;;18.54;46.53
49194;BME280;35029;50.804;12.866;2023-04-21T12:22:47;97565.78;;;18.18;46.70
49194;BME280;35029;50.804;12.866;2023-04-21T12:25:13;97545.78;;;18.75;47.01
49194;BME280;35029;50.804;12.866;2023-04-21T12:27:52;97551.28;;;19.18;45.10
49194;BME280;35029;50.804;12.866;2023-04-21T12:30:19;97545.94;;;19.18;46.78
49194;BME280;35029;50.804;12.866;2023-04-21T12:32:45;97531.50;;;18.69;47.17
49194;BME280;35029;50.804;12.866;2023-04-21T12:35:12;97545.72;;;18.20;45.24
49194;BME280;35029;50.804;12.866;2023-04-21T12:37:37;97553.28;;;17.67;47.39
49194;BME280;35029;50.804;12.866;2023-04-21T12:40:03;97559.78;;;17.37;46.27
49194;BME280;35029;50.804;12.866;2023-04-21T12:42:29;97557.81;;;17.33;46.78
49194;BME280;35029;50.804;12.866;2023-04-21T12:44:56;97555.28;;;17.94;48.27
49194;BME280;35029;50.804;12.866;2023-04-21T12:47:22;97549.38;;;18.36;46.41
49194;BME280;35029;50.804;12.866;2023-04-21T12:49:47;97544.13;;;18.02;48.68
49194;BME280;35029;50.804;12.866;2023-04-21T12:52:13;97545.94;;;17.80;47.99
49194;BME280;35029;50.804;12.866;2023-04-21T12:54:38;97531.53;;;18.25;47.83
49194;BME280;35029;50.804;12.866;2023-04-21T12:57:05;97542.47;;;18.90;48.17
49194;BME280;35029;50.804;12.866;2023-04-21T12:59:31;97530.22;;;19.37;46.33
49194;BME280;35029;50.804;12.866;2023-04-21T13:01:56;97542.44;;;19.17;45.54
49194;BME280;35029;50.804;12.866;2023-04-21T13:04:22;97529.91;;;18.46;46.60
49194;BME280;35029;50.804;12.866;2023-04-21T13:06:48;97539.41;;;18.10;46.74